Time;durP1;ratioP1;P1;durP2;ratioP2;P2;SDS_P1;SDS_P2;PMS_P1;PMS_P2;Temp;Humidity;BMP_temperature;BMP_pressure;BME280_temperature;BME280_humidity;BME280_pressure;Samples;Min_cycle;Max_cycle;Signal;HPM_P1;HPM_P2
2022/08/02 00:01:34;;;;;;;4.40;1.40;;;;;;;18.34;75.43;100479.88;5015448;28;20056;-77
2022/08/02 00:03:59;;;;;;;8.60;1.80;;;;;;;18.44;75.30;100490.69;5013173;28;20042;-76
2022/08/02 00:06:25;;;;;;;2.30;1.00;;;;;;;18.50;75.51;100494.97;5021019;28;20456;-76
2022/08/02 00:08:53;;;;;;;2.55;1.40;;;;;;;18.51;75.48;100488.28;5027010;28;20037;-76
2022/08/02 00:11:19;;;;;;;3.83;1.08;;;;;;;18.52;75.73;100487.16;5039031;28;20024;-75
2022/08/02 00:13:45;;;;;;;2.58;1.38;;;;;;;18.52;75.95;100481.63;5026150;28;20030;-75
2022/08/02 00:16:11;;;;;;;6.10;1.17;;;;;;;18.44;75.85;100463.00;5042026;28;20075;-75
2022/08/02 00:18:36;;;;;;;3.83;1.10;;;;;;;18.48;75.78;100464.00;5017034;28;20025;-77
2022/08/02 00:21:02;;;;;;;1.65;0.77;;;;;;;18.56;76.17;100471.53;5033168;28;20029;-76
2022/08/02 00:23:28;;;;;;;2.45;0.90;;;;;;;18.54;76.76;100473.78;5035575;28;20116;-76
2022/08/02 00:25:53;;;;;;;7.25;1.00;;;;;;;18.39;77.45;100465.91;5032635;28;20438;-77
2022/08/02 00:28:18;;;;;;;7.00;1.08;;;;;;;18.27;78.32;100467.31;5030841;28;20030;-75
2022/08/02 00:30:44;;;;;;;2.00;1.10;;;;;;;18.13;79.47;100467.38;5003599;28;20041;-76
2022/08/02 00:33:09;;;;;;;2.30;1.20;;;;;;;18.03;80.61;100464.06;5009954;28;20353;-76
2022/08/02 00:35:35;;;;;;;4.05;1.38;;;;;;;17.96;81.05;100459.00;5022720;28;20099;-75
2022/08/02 00:38:03;;;;;;;4.85;1.30;;;;;;;17.94;81.65;100461.25;4998585;28;20061;-77
2022/08/02 00:40:28;;;;;;;2.67;1.33;;;;;;;17.85;82.37;100452.84;5025629;28;20044;-76
2022/08/02 00:43:08;;;;;;;2.97;1.60;;;;;;;17.85;82.56;100452.84;5015649;28;20085;-75
2022/08/02 00:45:36;;;;;;;5.20;1.10;;;;;;;17.85;83.20;100463.91;5036087;28;20116;-75
2022/08/02 00:48:02;;;;;;;4.18;1.45;;;;;;;17.84;83.44;100456.75;5031998;28;20033;-74
2022/08/02 00:50:28;;;;;;;3.10;1.35;;;;;;;17.86;83.76;100454.50;5026509;28;20029;-75
2022/08/02 00:52:54;;;;;;;1.55;1.08;;;;;;;17.88;83.15;100448.66;5030026;28;20048;-76
2022/08/02 00:55:20;;;;;;;3.58;1.35;;;;;;;17.85;83.08;100447.31;5032704;28;20124;-76
2022/08/02 00:57:46;;;;;;;5.93;1.25;;;;;;;17.86;83.62;100435.13;5021336;28;20057;-76
2022/08/02 01:00:13;;;;;;;5.18;1.42;;;;;;;17.88;83.24;100441.16;5030901;28;20040;-76
2022/08/02 01:02:39;;;;;;;3.08;1.70;;;;;;;17.94;83.62;100451.00;5034416;28;20464;-76
2022/08/02 01:08:58;;;;;;;2.85;1.40;;;;;;;17.78;83.64;100435.88;4954974;28;20066;-75
2022/08/02 01:11:27;;;;;;;2.70;1.35;;;;;;;17.79;84.04;100435.56;4955117;28;20046;-74
2022/08/02 01:13:58;;;;;;;4.95;1.38;;;;;;;17.83;84.50;100446.84;5035400;28;20046;-75
2022/08/02 01:16:27;;;;;;;3.03;1.35;;;;;;;17.82;84.77;100453.50;5046107;28;20056;-75
2022/08/02 01:19:07;;;;;;;2.42;1.40;;;;;;;17.80;84.88;100455.75;5034001;28;20083;-76
2022/08/02 01:22:15;;;;;;;2.10;1.38;;;;;;;17.70;85.68;100443.00;5037538;28;20029;-75
2022/08/02 01:24:55;;;;;;;2.65;1.70;;;;;;;17.67;86.50;100445.56;5034605;28;20060;-75
2022/08/02 01:27:49;;;;;;;2.55;1.50;;;;;;;17.68;86.48;100453.53;5019186;28;20132;-77
2022/08/02 01:30:16;;;;;;;3.53;1.20;;;;;;;17.60;86.86;100440.47;5034076;28;20026;-76
2022/08/02 01:32:45;;;;;;;4.40;1.35;;;;;;;17.61;86.83;100448.47;5032033;28;20045;-76
2022/08/02 01:38:28;;;;;;;3.17;1.30;;;;;;;17.47;87.68;100435.81;5017680;28;20105;-75
2022/08/02 01:41:06;;;;;;;1.95;1.30;;;;;;;17.56;87.82;100439.47;5023792;28;20035;-75
2022/08/02 01:43:33;;;;;;;2.92;1.42;;;;;;;17.54;87.99;100430.66;5030307;28;20107;-75
2022/08/02 01:45:59;;;;;;;1.83;1.45;;;;;;;17.61;88.07;100442.94;5030799;28;20036;-76
2022/08/02 01:48:28;;;;;;;2.20;1.25;;;;;;;17.66;87.94;100438.41;4989606;28;20112;-75
2022/08/02 01:50:56;;;;;;;1.58;1.17;;;;;;;17.65;88.06;100434.00;5037403;28;20040;-73
2022/08/02 01:53:25;;;;;;;4.03;1.38;;;;;;;17.67;88.08;100438.09;5035284;28;20021;-75
2022/08/02 01:55:54;;;;;;;10.27;1.95;;;;;;;17.65;88.17;100429.28;5024427;28;20120;-72
2022/08/02 01:58:23;;;;;;;1.80;1.00;;;;;;;17.63;88.14;100431.53;5026093;28;20096;-73
2022/08/02 02:00:50;;;;;;;3.25;1.25;;;;;;;17.59;88.54;100434.09;5025885;28;20029;-74
2022/08/02 02:03:19;;;;;;;4.95;1.38;;;;;;;17.58;88.48;100421.44;5021326;28;20100;-74
2022/08/02 02:05:50;;;;;;;4.03;1.20;;;;;;;17.56;89.05;100412.63;5037509;28;20031;-74
2022/08/02 02:08:22;;;;;;;3.17;1.48;;;;;;;17.60;89.11;100423.88;5017643;28;20034;-75
2022/08/02 02:10:49;;;;;;;2.35;1.33;;;;;;;17.60;88.80;100412.81;5027415;28;20024;-73
2022/08/02 02:13:17;;;;;;;5.05;1.20;;;;;;;17.58;89.57;100404.84;5035370;28;20168;-74
2022/08/02 02:15:47;;;;;;;2.60;1.00;;;;;;;17.59;89.63;100403.69;5035665;28;20080;-75
2022/08/02 02:18:17;;;;;;;2.35;1.10;;;;;;;17.59;89.77;100412.00;5047628;28;20041;-75
2022/08/02 02:20:46;;;;;;;2.83;1.00;;;;;;;17.55;90.61;100399.94;5035426;28;20048;-77
2022/08/02 02:23:12;;;;;;;2.00;1.00;;;;;;;17.55;90.27;100405.47;5033718;28;20538;-75
2022/08/02 02:25:40;;;;;;;2.97;1.10;;;;;;;17.55;90.07;100391.66;5037454;28;20018;-76
2022/08/02 02:28:10;;;;;;;1.95;1.10;;;;;;;17.62;90.25;100399.50;5044797;28;20052;-75
2022/08/02 02:30:38;;;;;;;2.88;1.05;;;;;;;17.70;90.01;100400.72;5026958;28;20037;-77
2022/08/02 02:33:06;;;;;;;1.00;0.90;;;;;;;17.66;89.87;100394.97;5030618;28;20028;-75
2022/08/02 02:35:36;;;;;;;2.03;1.00;;;;;;;17.72;89.78;100398.44;5039373;28;20430;-75
2022/08/02 02:38:04;;;;;;;1.30;1.02;;;;;;;17.72;90.20;100398.44;5040476;28;20034;-75
2022/08/02 02:40:35;;;;;;;1.42;0.80;;;;;;;17.63;89.95;100392.84;5037862;28;20021;-75
2022/08/02 02:43:02;;;;;;;5.85;1.13;;;;;;;17.70;90.41;100406.25;5038473;28;20078;-74
2022/08/02 02:45:32;;;;;;;3.65;1.02;;;;;;;17.69;89.84;100405.41;5006480;28;20092;-75
2022/08/02 02:48:00;;;;;;;3.60;1.08;;;;;;;17.65;90.54;100392.53;5029193;28;20021;-75
2022/08/02 02:50:27;;;;;;;3.45;0.90;;;;;;;17.59;90.06;100381.56;5020776;28;20029;-75
2022/08/02 02:52:54;;;;;;;1.75;1.05;;;;;;;17.60;90.14;100394.28;5035056;28;20032;-77
2022/08/02 02:55:27;;;;;;;4.05;1.13;;;;;;;17.54;90.16;100381.72;5014167;28;20068;-74
2022/08/02 02:57:54;;;;;;;1.60;0.90;;;;;;;17.56;90.40;100373.91;5020172;28;20053;-77
2022/08/02 03:01:26;;;;;;;2.65;1.25;;;;;;;17.58;90.38;100384.66;5052541;28;20037;-76
2022/08/02 03:03:07;;;;;;;2.42;1.33;;;;;;;17.59;90.40;100384.34;5029586;28;20549;-75
2022/08/02 03:05:33;;;;;;;5.13;1.17;;;;;;;17.49;89.99;100379.06;5042046;28;20042;-77
2022/08/02 03:07:58;;;;;;;2.65;1.02;;;;;;;17.49;90.71;100383.78;5038772;28;20040;-76
2022/08/02 03:10:25;;;;;;;3.15;1.25;;;;;;;17.54;90.55;100387.25;5031447;28;20034;-75
2022/08/02 03:12:51;;;;;;;1.75;1.10;;;;;;;17.53;90.36;100385.59;5032526;28;20045;-76
2022/08/02 03:15:16;;;;;;;2.05;1.10;;;;;;;17.59;90.58;100384.34;5023452;28;20038;-76
2022/08/02 03:17:44;;;;;;;3.60;1.10;;;;;;;17.61;90.43;100382.09;5039822;28;20026;-76
2022/08/02 03:20:21;;;;;;;3.03;1.10;;;;;;;17.59;90.04;100384.34;5055912;28;20033;-75
2022/08/02 03:22:47;;;;;;;3.55;1.10;;;;;;;17.56;90.23;100375.88;5037983;28;20025;-76
2022/08/02 03:25:14;;;;;;;1.85;1.10;;;;;;;17.59;90.38;100378.00;5019142;28;20029;-74
2022/08/02 03:27:40;;;;;;;4.22;1.30;;;;;;;17.61;90.19;100387.63;5031600;28;20033;-74
2022/08/02 03:30:07;;;;;;;3.45;1.30;;;;;;;17.59;89.98;100384.34;5034058;28;20032;-75
2022/08/02 03:32:34;;;;;;;5.80;1.50;;;;;;;17.63;90.23;100385.34;5024756;28;20021;-75
2022/08/02 03:35:04;;;;;;;5.93;1.42;;;;;;;17.65;90.40;100375.94;5051883;28;20032;-74
2022/08/02 03:37:31;;;;;;;4.10;1.25;;;;;;;17.71;90.07;100382.97;5035665;28;20164;-73
2022/08/02 03:40:02;;;;;;;4.40;1.10;;;;;;;17.65;89.49;100365.69;5018298;28;20029;-74
2022/08/02 03:42:29;;;;;;;6.05;1.02;;;;;;;17.66;89.99;100370.09;5008235;28;20037;-73
2022/08/02 03:44:55;;;;;;;6.00;1.35;;;;;;;17.75;89.59;100381.22;5012514;28;21303;-73
2022/08/02 03:47:26;;;;;;;9.80;1.48;;;;;;;17.67;89.67;100365.38;5027635;28;20402;-74
2022/08/02 03:49:52;;;;;;;3.22;1.45;;;;;;;17.75;89.83;100383.97;5027195;28;20029;-74
2022/08/02 03:52:22;;;;;;;2.17;0.93;;;;;;;17.69;89.47;100374.19;5034851;28;20091;-75
2022/08/02 03:54:47;;;;;;;5.10;1.20;;;;;;;17.76;89.21;100382.84;5041228;28;20144;-77
2022/08/02 03:57:13;;;;;;;1.75;1.00;;;;;;;17.81;89.65;100385.47;5003124;28;20037;-75
2022/08/02 03:59:56;;;;;;;4.50;1.00;;;;;;;17.76;89.32;100378.13;5022257;28;20089;-75
2022/08/02 04:02:24;;;;;;;3.63;0.98;;;;;;;17.69;89.12;100355.63;5039612;28;20049;-75
2022/08/02 04:04:52;;;;;;;6.50;1.30;;;;;;;17.79;89.10;100376.69;5025782;28;20025;-76
2022/08/02 04:07:50;;;;;;;;;;;;;;;;;;;;;
2022/08/02 04:14:04;;;;;;;3.55;0.80;;;;;;;17.71;88.13;100336.78;4957855;28;20050;-76
2022/08/02 04:16:33;;;;;;;2.55;0.75;;;;;;;17.89;87.93;100357.06;4942435;28;20023;-75
2022/08/02 04:19:12;;;;;;;1.65;0.70;;;;;;;17.81;87.43;100332.91;5023601;28;20026;-76
2022/08/02 04:21:58;;;;;;;;;;;;;;;;;;;;;
2022/08/02 04:24:30;;;;;;;1.02;0.60;;;;;;;18.10;87.77;100370.38;5031714;28;20113;-75
2022/08/02 04:26:57;;;;;;;1.90;0.70;;;;;;;18.07;87.56;100371.81;5035061;28;20152;-75
2022/08/02 04:29:24;;;;;;;1.80;0.60;;;;;;;18.10;87.42;100375.91;5030908;28;20034;-74
2022/08/02 04:35:29;;;;;;;;;;;;;;;;;;;;;
2022/08/02 04:38:47;;;;;;;3.25;0.88;;;;;;;18.27;86.06;100373.22;5038957;28;20112;-75
2022/08/02 04:45:30;;;;;;;;;;;;;;;;;;;;;
2022/08/02 04:52:41;;;;;;;;;;;;;;;;;;;;;
2022/08/02 04:55:49;;;;;;;0.77;0.63;;;;;;;18.27;85.76;100358.56;4926502;29;20028;-75
2022/08/02 04:58:45;;;;;;;2.85;0.82;;;;;;;18.36;86.36;100372.44;4968494;28;20121;-75
2022/08/02 05:01:31;;;;;;;1.00;0.60;;;;;;;18.21;85.83;100344.06;4939364;28;20377;-75
2022/08/02 05:04:08;;;;;;;6.70;1.15;;;;;;;18.24;85.61;100343.41;4979270;28;20404;-75
2022/08/02 05:06:33;;;;;;;2.65;0.65;;;;;;;18.38;85.91;100370.16;5012260;28;20065;-76
2022/08/02 05:09:02;;;;;;;4.10;1.02;;;;;;;18.24;86.08;100354.47;5008134;28;20038;-75
2022/08/02 05:11:28;;;;;;;4.95;0.90;;;;;;;18.26;86.05;100368.81;5031271;28;20041;-76
2022/08/02 05:14:14;;;;;;;3.05;0.80;;;;;;;18.15;86.92;100359.19;5020453;28;20156;-76
2022/08/02 05:17:11;;;;;;;12.57;1.10;;;;;;;18.35;86.73;100387.41;5035199;28;20029;-75
2022/08/02 05:20:17;;;;;;;1.80;0.75;;;;;;;18.26;86.90;100363.28;5041730;28;20055;-73
2022/08/02 05:22:48;;;;;;;2.90;0.80;;;;;;;18.13;86.53;100337.31;5033484;28;20021;-76
2022/08/02 05:25:17;;;;;;;5.70;0.88;;;;;;;18.19;86.85;100362.09;5028620;28;20483;-77
2022/08/02 05:27:52;;;;;;;3.25;1.05;;;;;;;18.21;86.79;100370.91;5024748;28;20029;-76
2022/08/02 05:30:28;;;;;;;;;;;;;;;;;;;;;
2022/08/02 05:32:59;;;;;;;5.72;1.23;;;;;;;18.29;87.41;100383.97;5032185;28;20116;-75
2022/08/02 05:35:47;;;;;;;4.35;1.10;;;;;;;18.10;87.49;100365.63;5017946;28;20037;-77
2022/08/02 05:38:15;;;;;;;4.85;0.82;;;;;;;18.17;87.21;100376.25;5015543;28;20033;-75
2022/08/02 05:40:51;;;;;;;8.05;1.92;;;;;;;18.14;87.29;100357.53;5033261;28;20051;-74
2022/08/02 05:43:16;;;;;;;4.70;0.80;;;;;;;18.11;87.63;100360.94;5035042;28;20036;-75
2022/08/02 05:45:42;;;;;;;2.40;0.73;;;;;;;18.24;87.11;100379.38;5023717;28;20018;-74
2022/08/02 05:48:07;;;;;;;1.95;0.65;;;;;;;18.23;87.11;100374.97;5035993;28;20369;-76
2022/08/02 05:50:38;;;;;;;1.73;0.50;;;;;;;18.30;87.42;100391.94;5023576;28;20029;-75
2022/08/02 05:53:31;;;;;;;2.78;0.70;;;;;;;18.34;87.17;100380.22;5028212;28;20049;-75
2022/08/02 05:56:08;;;;;;;3.92;1.23;;;;;;;18.46;86.83;100388.75;5017819;28;20091;-76
2022/08/02 05:58:52;;;;;;;3.60;0.60;;;;;;;18.46;86.46;100377.69;5017144;28;20125;-74
2022/08/02 06:01:37;;;;;;;5.22;1.13;;;;;;;18.49;86.32;100365.97;5028723;28;20057;-75
2022/08/02 06:04:08;;;;;;;7.65;1.83;;;;;;;18.69;85.57;100380.34;5015986;28;20038;-76
2022/08/02 06:06:44;;;;;;;2.05;0.80;;;;;;;18.77;84.50;100379.56;5019690;28;20025;-76
2022/08/02 06:09:17;;;;;;;2.92;1.10;;;;;;;18.78;84.16;100370.13;5031301;28;20029;-74
2022/08/02 06:14:38;;;;;;;1.70;0.50;;;;;;;18.80;84.09;100354.78;5028336;28;20101;-77
2022/08/02 06:21:15;;;;;;;9.73;1.10;;;;;;;18.89;84.10;100367.88;4956816;28;20076;-76
2022/08/02 06:23:42;;;;;;;2.08;1.00;;;;;;;18.93;83.65;100363.34;4950399;28;20039;-76
2022/08/02 06:26:33;;;;;;;1.08;0.47;;;;;;;19.06;83.79;100372.63;4956324;28;20062;-76
2022/08/02 06:40:11;;;;;;;;;;;;;;;;;;;;;
2022/08/02 06:46:48;;;;;;;;;;;;;;;;;;;;;
2022/08/02 06:50:13;;;;;;;4.65;0.73;;;;;;;19.95;78.95;100375.84;4899318;29;20119;-78
2022/08/02 06:52:40;;;;;;;2.90;1.20;;;;;;;20.17;77.57;100371.22;4905477;29;20044;-74
2022/08/02 07:12:53;;;;;;;6.70;1.02;;;;;;;21.64;71.31;100383.69;4389675;26;20476;-73
2022/08/02 07:15:19;;;;;;;3.08;0.77;;;;;;;21.72;71.01;100393.94;5015244;28;20038;-75
2022/08/02 07:17:44;;;;;;;4.22;0.88;;;;;;;21.60;70.43;100394.72;5016243;28;20034;-76
2022/08/02 07:20:10;;;;;;;3.20;0.70;;;;;;;21.49;71.40;100399.03;4981262;28;20030;-73
2022/08/02 07:22:36;;;;;;;5.43;0.80;;;;;;;21.44;71.83;100388.94;5018702;28;20411;-74
2022/08/02 07:25:02;;;;;;;2.28;0.70;;;;;;;21.65;71.15;100388.91;5016046;28;20287;-72
2022/08/02 07:27:31;;;;;;;4.20;0.70;;;;;;;21.68;71.11;100385.44;5018101;28;20450;-74
2022/08/02 07:30:20;;;;;;;5.72;0.60;;;;;;;21.58;71.36;100394.22;4996452;28;20033;-73
2022/08/02 07:32:45;;;;;;;2.38;0.60;;;;;;;21.75;70.95;100393.25;5014315;28;20038;-75
2022/08/02 07:35:11;;;;;;;4.78;1.50;;;;;;;21.91;70.07;100390.63;5016814;28;20068;-73
2022/08/02 07:37:45;;;;;;;6.70;1.20;;;;;;;21.92;69.52;100381.13;5012020;28;20036;-73
2022/08/02 07:40:13;;;;;;;7.05;0.88;;;;;;;22.12;69.31;100390.56;5011125;28;20033;-73
2022/08/02 07:42:38;;;;;;;2.70;0.57;;;;;;;22.30;68.41;100385.59;4999956;28;20160;-73
2022/08/02 07:45:04;;;;;;;2.10;0.50;;;;;;;22.40;67.23;100376.81;5027405;28;20063;-73
2022/08/02 07:47:30;;;;;;;1.13;0.52;;;;;;;22.65;66.66;100387.97;5013648;28;20049;-74
2022/08/02 07:49:56;;;;;;;1.15;0.30;;;;;;;22.72;66.29;100385.41;5016870;28;20443;-73
2022/08/02 07:52:24;;;;;;;2.72;0.30;;;;;;;22.70;66.06;100382.16;5016064;28;20117;-74
2022/08/02 07:54:49;;;;;;;2.40;0.52;;;;;;;22.87;65.78;100391.41;4989640;28;20053;-74
2022/08/02 07:57:19;;;;;;;1.65;0.40;;;;;;;22.97;65.46;100400.13;5013650;28;20045;-75
2022/08/02 08:00:08;;;;;;;2.47;0.65;;;;;;;22.94;66.16;100408.38;5012618;28;20029;-73
2022/08/02 08:02:44;;;;;;;;;;;;;;;;;;;;;
2022/08/02 08:05:45;;;;;;;1.23;0.30;;;;;;;23.18;64.68;100416.72;5012020;28;20034;-74
2022/08/02 08:08:31;;;;;;;3.60;0.30;;;;;;;23.17;65.14;100401.16;5009716;28;20034;-73
2022/08/02 08:10:56;;;;;;;2.33;0.50;;;;;;;23.00;65.14;100398.63;5016479;28;20395;-75
2022/08/02 08:13:37;;;;;;;;;;;;;;;;;;;;;
2022/08/02 08:16:03;;;;;;;4.15;0.35;;;;;;;23.06;65.83;100411.16;5001450;28;20456;-73
2022/08/02 08:18:29;;;;;;;0.20;0.10;;;;;;;23.12;65.03;100392.22;5016121;28;20060;-75
2022/08/02 08:20:54;;;;;;;5.95;0.30;;;;;;;23.30;64.33;100398.34;5027006;28;20396;-74
2022/08/02 08:23:20;;;;;;;1.23;0.43;;;;;;;23.32;64.81;100424.72;5003503;28;20091;-74
2022/08/02 08:25:45;;;;;;;0.38;0.17;;;;;;;23.49;63.76;100408.84;4994733;28;20576;-75
2022/08/02 08:28:11;;;;;;;0.85;0.30;;;;;;;23.81;63.02;100401.38;5016318;28;20044;-74
2022/08/02 08:30:38;;;;;;;0.47;0.30;;;;;;;24.11;61.63;100400.19;4997655;28;20038;-74
2022/08/02 08:33:04;;;;;;;6.60;0.20;;;;;;;24.06;60.77;100401.28;5009706;28;20034;-76
2022/08/02 08:35:29;;;;;;;4.68;0.30;;;;;;;23.93;61.41;100402.53;4995592;28;20041;-75
2022/08/02 08:37:55;;;;;;;1.70;0.20;;;;;;;23.90;61.43;100403.25;4989415;28;20113;-75
2022/08/02 08:40:20;;;;;;;3.83;0.20;;;;;;;24.05;60.96;100399.69;4983307;28;20546;-74
2022/08/02 08:42:45;;;;;;;1.17;0.20;;;;;;;24.18;61.11;100398.41;5014252;28;20033;-74
2022/08/02 08:45:11;;;;;;;0.40;0.30;;;;;;;24.19;60.09;100411.19;4998814;28;20030;-75
2022/08/02 08:47:41;;;;;;;1.02;0.20;;;;;;;24.16;60.84;100406.34;5009955;28;20190;-75
2022/08/02 08:50:15;;;;;;;2.80;0.40;;;;;;;24.36;59.89;100403.66;5011063;28;20026;-74
2022/08/02 08:53:05;;;;;;;3.85;0.15;;;;;;;24.66;59.10;100406.84;5017964;28;20038;-73
2022/08/02 08:55:35;;;;;;;1.38;0.20;;;;;;;24.61;59.03;100409.09;5016310;28;20056;-73
2022/08/02 08:58:02;;;;;;;0.20;0.10;;;;;;;24.86;58.95;100407.69;5008909;28;20037;-74
2022/08/02 09:00:33;;;;;;;0.95;0.30;;;;;;;25.11;57.21;100404.63;5015868;28;20021;-74
2022/08/02 09:03:02;;;;;;;1.73;0.40;;;;;;;24.87;57.46;100412.09;5020682;28;20606;-75
2022/08/02 09:05:28;;;;;;;0.80;0.30;;;;;;;24.70;57.84;100399.31;5014844;28;20033;-75
2022/08/02 09:07:53;;;;;;;0.65;0.13;;;;;;;24.51;58.55;100405.63;5014824;28;20042;-73
2022/08/02 09:10:35;;;;;;;3.53;0.20;;;;;;;24.42;58.00;100402.22;5018835;28;20022;-74
2022/08/02 09:13:15;;;;;;;0.82;0.30;;;;;;;24.35;58.88;100407.63;5007068;28;20050;-73
2022/08/02 09:15:43;;;;;;;1.92;0.73;;;;;;;24.46;58.46;100403.13;5015285;28;20080;-75
2022/08/02 09:18:09;;;;;;;2.05;0.43;;;;;;;24.52;57.74;100401.66;5016359;28;20030;-74
2022/08/02 09:20:56;;;;;;;4.07;0.40;;;;;;;24.33;58.45;100415.56;5017626;28;20076;-73
2022/08/02 09:23:22;;;;;;;1.05;0.60;;;;;;;24.04;59.30;100393.25;5017064;28;20053;-75
2022/08/02 09:25:59;;;;;;;2.55;0.55;;;;;;;24.10;59.52;100391.00;4999212;28;20052;-75
2022/08/02 09:28:27;;;;;;;2.53;0.68;;;;;;;24.22;58.95;100393.75;4993252;28;20034;-74
2022/08/02 09:30:55;;;;;;;2.10;0.50;;;;;;;24.02;59.06;100394.78;5010321;28;20045;-74
2022/08/02 09:33:32;;;;;;;0.60;0.30;;;;;;;23.85;59.59;100401.50;4997386;28;20111;-74
2022/08/02 09:36:55;;;;;;;;;;;;;;;;;;;;;
2022/08/02 09:39:22;;;;;;;0.73;0.43;;;;;;;23.40;61.51;100386.69;4642731;26;20126;-75
2022/08/02 09:41:48;;;;;;;3.55;0.50;;;;;;;23.58;61.35;100391.97;5041798;28;20569;-74
2022/08/02 09:44:17;;;;;;;3.22;0.40;;;;;;;24.09;60.03;100394.16;5052148;28;20025;-76
2022/08/02 09:46:44;;;;;;;0.35;0.10;;;;;;;24.40;59.62;100404.56;5048033;28;20542;-75
2022/08/02 09:49:12;;;;;;;1.77;0.50;;;;;;;24.90;57.51;100411.38;5054360;28;20025;-75
2022/08/02 09:51:39;;;;;;;1.20;0.50;;;;;;;25.06;56.76;100402.94;5055842;28;20027;-75
2022/08/02 09:54:12;;;;;;;2.38;0.30;;;;;;;25.20;56.28;100408.06;5057244;28;20020;-74
2022/08/02 09:56:47;;;;;;;2.70;0.43;;;;;;;25.45;55.55;100407.78;5077284;28;20024;-75
2022/08/02 09:59:13;;;;;;;1.85;0.38;;;;;;;25.65;54.78;100431.00;5073394;28;20614;-76
2022/08/02 10:01:40;;;;;;;1.33;0.35;;;;;;;25.44;55.11;100400.59;5043895;28;20036;-74
2022/08/02 10:04:10;;;;;;;1.00;0.55;;;;;;;25.72;54.52;100393.94;5036937;28;20420;-75
2022/08/02 10:06:36;;;;;;;3.10;0.50;;;;;;;25.71;54.55;100400.72;5053633;28;20017;-74
2022/08/02 10:09:01;;;;;;;1.42;0.43;;;;;;;26.21;53.14;100412.06;5058244;28;20030;-74
2022/08/02 10:11:27;;;;;;;0.82;0.28;;;;;;;26.41;52.67;100398.81;5058788;28;20032;-74
2022/08/02 10:13:54;;;;;;;0.38;0.28;;;;;;;26.56;53.02;100392.25;5044173;28;20029;-75
2022/08/02 10:16:23;;;;;;;1.63;0.47;;;;;;;26.83;51.60;100412.72;5042403;28;20028;-75
2022/08/02 10:18:53;;;;;;;1.17;0.40;;;;;;;26.96;51.29;100410.50;5053501;28;20115;-75
2022/08/02 10:21:30;;;;;;;3.20;0.43;;;;;;;26.64;52.36;100405.19;5079287;28;20099;-75
2022/08/02 10:24:17;;;;;;;4.68;0.40;;;;;;;26.67;52.52;100414.84;5062685;28;20192;-76
2022/08/02 10:26:58;;;;;;;0.85;0.28;;;;;;;26.07;53.64;100426.66;5056855;28;20024;-74
2022/08/02 10:29:29;;;;;;;0.25;0.20;;;;;;;25.75;55.25;100418.41;5047178;28;20033;-76
2022/08/02 10:32:05;;;;;;;1.98;0.52;;;;;;;25.88;54.71;100422.66;5052568;28;20035;-75
2022/08/02 10:34:42;;;;;;;1.83;0.40;;;;;;;26.33;53.70;100416.69;5055644;28;20028;-76
2022/08/02 10:37:09;;;;;;;0.90;0.20;;;;;;;26.76;53.08;100400.59;5069963;28;20494;-74
2022/08/02 10:39:42;;;;;;;1.95;0.45;;;;;;;27.27;50.90;100408.53;5075273;28;20040;-76
2022/08/02 10:42:08;;;;;;;0.22;0.22;;;;;;;27.28;50.43;100401.72;5039045;28;20028;-75
2022/08/02 10:44:35;;;;;;;5.30;0.35;;;;;;;27.14;50.93;100407.94;5041722;28;20037;-74
2022/08/02 10:47:21;;;;;;;0.82;0.20;;;;;;;26.90;51.71;100411.25;5074056;28;20036;-75
2022/08/02 10:49:48;;;;;;;0.73;0.40;;;;;;;26.55;52.43;100410.25;5075847;28;20482;-75
2022/08/02 10:52:14;;;;;;;3.42;0.55;;;;;;;26.24;53.76;100420.56;5054700;28;20075;-74
2022/08/02 10:54:40;;;;;;;2.80;0.60;;;;;;;25.72;55.22;100410.75;5039773;28;20032;-75
2022/08/02 10:57:21;;;;;;;3.15;0.60;;;;;;;25.22;57.34;100411.28;5056209;28;20158;-75
2022/08/02 10:59:49;;;;;;;0.52;0.30;;;;;;;25.04;57.96;100412.88;5076145;28;20098;-74
2022/08/02 11:02:34;;;;;;;0.57;0.20;;;;;;;25.13;57.42;100407.91;5057217;28;20047;-75
2022/08/02 11:05:01;;;;;;;3.78;0.50;;;;;;;25.07;57.43;100403.75;5056702;28;20067;-74
2022/08/02 11:07:39;;;;;;;1.48;0.40;;;;;;;24.98;58.01;100406.75;5056965;28;20051;-75
2022/08/02 11:10:38;;;;;;;4.20;0.68;;;;;;;24.92;58.23;100411.81;5066431;28;20070;-74
2022/08/02 11:13:12;;;;;;;2.90;0.70;;;;;;;24.71;58.77;100414.94;5026061;28;20037;-76
2022/08/02 11:15:59;;;;;;;2.40;0.57;;;;;;;24.43;59.57;100420.59;5075363;28;20017;-75
2022/08/02 11:18:50;;;;;;;6.90;0.82;;;;;;;24.17;60.48;100421.13;5078012;28;20019;-76
2022/08/02 11:21:28;;;;;;;2.03;0.40;;;;;;;24.06;61.33;100440.38;5061362;28;20033;-75
2022/08/02 11:23:55;;;;;;;2.33;0.57;;;;;;;23.89;61.87;100419.19;5064950;28;20095;-76
2022/08/02 11:26:29;;;;;;;3.25;0.90;;;;;;;23.81;62.42;100432.09;5077187;28;20068;-74
2022/08/02 11:29:03;;;;;;;3.40;0.70;;;;;;;23.74;62.45;100437.47;5078307;28;20020;-74
2022/08/02 11:31:36;;;;;;;;;;;;;;;23.61;62.24;100433.94;5074713;28;20036;-75
2022/08/02 11:34:03;;;;;;;4.47;0.68;;;;;;;23.53;62.95;100418.94;5044808;28;20368;-74
2022/08/02 11:36:32;;;;;;;2.33;0.45;;;;;;;23.57;62.87;100426.59;5073611;28;20086;-77
2022/08/02 11:39:12;;;;;;;1.23;0.60;;;;;;;23.87;62.17;100427.09;5041011;28;20052;-72
2022/08/02 11:41:40;;;;;;;1.05;0.60;;;;;;;24.04;61.80;100409.22;5077273;28;20047;-73
2022/08/02 11:44:06;;;;;;;3.88;1.02;;;;;;;24.14;62.03;100419.06;5039706;28;20028;-73
2022/08/02 11:46:31;;;;;;;4.03;0.70;;;;;;;24.50;60.76;100415.19;5064857;28;20033;-73
2022/08/02 11:49:09;;;;;;;3.88;0.77;;;;;;;24.97;59.14;100426.69;5036955;28;20029;-72
2022/08/02 11:51:35;;;;;;;5.97;0.80;;;;;;;25.01;58.59;100417.19;5053232;28;20040;-73
2022/08/02 11:54:00;;;;;;;3.05;1.13;;;;;;;24.90;58.78;100408.56;5072282;28;20402;-75
2022/08/02 11:56:33;;;;;;;3.30;1.13;;;;;;;24.78;59.76;100408.72;5057548;28;20036;-72
2022/08/02 11:59:09;;;;;;;13.65;1.55;;;;;;;24.61;60.09;100415.47;5058090;28;20028;-72
2022/08/02 12:01:37;;;;;;;3.72;1.40;;;;;;;24.53;60.27;100417.25;5037390;28;20024;-73
2022/08/02 12:04:04;;;;;;;1.88;0.63;;;;;;;24.36;60.31;100412.84;5057138;28;20029;-73
2022/08/02 12:06:30;;;;;;;6.03;0.75;;;;;;;24.32;60.97;100413.94;5075259;28;20484;-73
2022/08/02 12:09:07;;;;;;;3.33;1.00;;;;;;;24.31;60.08;100417.88;5058397;28;20055;-73
2022/08/02 12:11:35;;;;;;;5.65;1.20;;;;;;;24.29;61.11;100414.66;5059659;28;20044;-73
2022/08/02 12:14:00;;;;;;;4.05;0.85;;;;;;;24.32;60.64;100408.34;5058994;28;20058;-72
2022/08/02 12:19:22;;;;;;;3.05;0.80;;;;;;;24.50;60.41;100398.44;5075760;28;20039;-72
2022/08/02 12:22:06;;;;;;;2.80;1.08;;;;;;;24.53;60.40;100414.47;5057483;28;20028;-72
2022/08/02 12:24:31;;;;;;;4.32;1.27;;;;;;;24.45;60.58;100395.88;5075033;28;20036;-72
2022/08/02 12:26:57;;;;;;;6.05;0.73;;;;;;;24.56;60.50;100391.38;5056380;28;20085;-72
2022/08/02 12:29:29;;;;;;;8.25;2.92;;;;;;;24.81;59.42;100391.19;5038044;28;20036;-73
2022/08/02 12:31:55;;;;;;;5.70;1.30;;;;;;;25.22;59.11;100399.31;5040133;28;20082;-74
2022/08/02 12:34:21;;;;;;;7.57;1.08;;;;;;;25.75;57.37;100404.41;5045139;28;20453;-72
2022/08/02 12:37:09;;;;;;;6.60;1.20;;;;;;;25.96;55.82;100410.41;5072938;28;20103;-73
2022/08/02 12:39:40;;;;;;;3.40;0.77;;;;;;;26.04;55.86;100400.19;5054379;28;20063;-73
2022/08/02 12:42:08;;;;;;;3.80;1.33;;;;;;;26.06;55.85;100402.59;5057899;28;20482;-74
2022/08/02 12:44:36;;;;;;;7.47;1.30;;;;;;;25.53;57.02;100401.16;5055239;28;20032;-72
2022/08/02 12:47:08;;;;;;;10.63;1.45;;;;;;;25.37;58.05;100403.25;5053625;28;20028;-76
2022/08/02 12:49:34;;;;;;;5.60;1.63;;;;;;;25.38;57.54;100407.66;5056768;28;20048;-75
2022/08/02 12:52:00;;;;;;;4.35;1.23;;;;;;;25.32;58.06;100409.13;5036329;28;20040;-74
2022/08/02 12:54:26;;;;;;;5.97;1.30;;;;;;;25.46;57.78;100400.22;5047027;28;20079;-73
2022/08/02 12:56:52;;;;;;;4.80;1.02;;;;;;;25.93;56.45;100394.34;5045288;28;20092;-73
2022/08/02 12:59:36;;;;;;;7.47;1.25;;;;;;;26.49;54.67;100403.34;5052997;28;20463;-74
2022/08/02 13:02:06;;;;;;;7.82;1.20;;;;;;;27.05;52.66;100395.41;5046355;28;20037;-72
2022/08/02 13:04:32;;;;;;;7.30;1.05;;;;;;;27.59;51.50;100391.31;5052036;28;20033;-73
2022/08/02 13:07:00;;;;;;;2.72;1.20;;;;;;;28.34;49.89;100385.69;5046507;28;20025;-74